createdAt,value
2022-10-29T00:01:04.579Z,991.6
2022-10-29T00:03:06.111Z,991.5
2022-10-29T00:05:07.069Z,991.5
2022-10-29T00:07:08.950Z,991.4
2022-10-29T00:09:10.572Z,991.4
2022-10-29T00:11:12.188Z,991.5
2022-10-29T00:13:13.853Z,991.4
2022-10-29T00:15:15.204Z,991.5
2022-10-29T00:17:16.136Z,991.6
2022-10-29T00:19:17.420Z,991.7
2022-10-29T00:21:18.965Z,991.6
2022-10-29T00:23:20.709Z,991.6
2022-10-29T00:25:22.552Z,991.5
2022-10-29T00:27:24.054Z,991.4
2022-10-29T00:29:25.772Z,991.5
2022-10-29T00:31:26.852Z,991.4
2022-10-29T00:33:28.180Z,991.4
2022-10-29T00:35:29.167Z,991.4
2022-10-29T00:37:30.685Z,991.3
2022-10-29T00:39:32.038Z,991.4
2022-10-29T00:41:33.124Z,991.3
2022-10-29T00:43:34.729Z,991.3
2022-10-29T00:45:35.929Z,991.3
2022-10-29T00:47:37.635Z,991.3
2022-10-29T00:49:39.065Z,991.4
2022-10-29T00:51:40.382Z,991.4
2022-10-29T00:55:43.491Z,991.5
2022-10-29T00:57:44.625Z,991.5
2022-10-29T00:58:28.482Z,991.5
2022-10-29T01:00:29.882Z,991.6
2022-10-29T01:02:31.628Z,991.5
2022-10-29T01:04:32.971Z,991.5
2022-10-29T01:06:34.712Z,991.6
2022-10-29T01:08:36.263Z,991.5
2022-10-29T01:10:37.952Z,991.4
2022-10-29T01:12:39.682Z,991.4
2022-10-29T01:14:41.388Z,991.3
2022-10-29T01:16:42.300Z,991.4
2022-10-29T01:18:44.138Z,991.4
2022-10-29T01:20:45.379Z,991.5
2022-10-29T01:22:46.407Z,991.4
2022-10-29T01:24:47.676Z,991.4
2022-10-29T01:26:48.955Z,991.4
2022-10-29T01:28:50.430Z,991.4
2022-10-29T01:30:51.700Z,991.5
2022-10-29T01:32:53.158Z,991.4
2022-10-29T01:34:54.087Z,991.4
2022-10-29T01:36:55.843Z,991.4
2022-10-29T01:38:57.428Z,991.4
2022-10-29T01:40:58.481Z,991.4
2022-10-29T01:42:59.816Z,991.2
2022-10-29T01:45:00.962Z,991.3
2022-10-29T01:47:01.845Z,991.3
2022-10-29T01:49:02.986Z,991.4
2022-10-29T01:51:04.806Z,991.5
2022-10-29T01:53:05.797Z,991.3
2022-10-29T01:55:06.715Z,991.3
2022-10-29T01:57:08.465Z,991.2
2022-10-29T01:59:14.281Z,991.3
2022-10-29T02:01:11.893Z,991.3
2022-10-29T02:03:13.615Z,991.2
2022-10-29T02:05:14.714Z,991.2
2022-10-29T02:07:16.190Z,991.2
2022-10-29T02:09:17.372Z,991.1
2022-10-29T02:11:19.142Z,991.1
2022-10-29T02:15:22.188Z,991
2022-10-29T02:17:23.697Z,991
2022-10-29T02:19:24.804Z,991.1
2022-10-29T02:21:26.228Z,991.1
2022-10-29T02:23:27.550Z,991.1
2022-10-29T02:25:29.322Z,991
2022-10-29T02:27:30.403Z,991
2022-10-29T02:29:32.184Z,991
2022-10-29T02:31:33.949Z,991
2022-10-29T02:33:35.416Z,991.1
2022-10-29T02:35:37.187Z,991
2022-10-29T02:37:38.365Z,991
2022-10-29T02:39:39.865Z,991
2022-10-29T02:41:41.214Z,991
2022-10-29T02:43:42.843Z,990.9
2022-10-29T02:45:43.863Z,990.9
2022-10-29T02:47:44.972Z,990.8
2022-10-29T02:49:46.746Z,990.9
2022-10-29T02:51:48.427Z,990.8
2022-10-29T02:53:50.206Z,990.8
2022-10-29T02:55:51.889Z,990.9
2022-10-29T02:57:53.507Z,990.8
2022-10-29T02:59:54.789Z,990.9
2022-10-29T03:01:56.731Z,991
2022-10-29T03:03:57.709Z,991
2022-10-29T03:05:59.582Z,991
2022-10-29T03:08:00.921Z,991
2022-10-29T03:10:02.310Z,991
2022-10-29T03:14:05.505Z,991.1
2022-10-29T03:16:06.916Z,990.9
2022-10-29T03:18:08.172Z,991
2022-10-29T03:20:09.484Z,991
2022-10-29T03:22:10.480Z,991
2022-10-29T03:24:11.978Z,991
2022-10-29T03:26:13.390Z,991
2022-10-29T03:28:14.973Z,991
2022-10-29T03:30:16.000Z,991
2022-10-29T03:32:17.784Z,991.1
2022-10-29T03:34:19.321Z,991
2022-10-29T03:36:20.566Z,991
2022-10-29T03:38:21.903Z,991.1
2022-10-29T03:40:23.627Z,991
2022-10-29T03:42:24.889Z,991.1
2022-10-29T03:44:26.080Z,991.1
2022-10-29T03:46:27.574Z,991.1
2022-10-29T03:48:28.466Z,991.1
2022-10-29T03:50:29.930Z,991.2
2022-10-29T03:52:31.046Z,991.2
2022-10-29T03:54:32.837Z,991.1
2022-10-29T03:56:34.348Z,991.2
2022-10-29T03:58:36.281Z,991.2
2022-10-29T04:00:37.481Z,991.2
2022-10-29T04:02:38.870Z,991.2
2022-10-29T04:04:39.916Z,991.1
2022-10-29T04:06:40.974Z,991.1
2022-10-29T04:08:41.948Z,991.1
2022-10-29T04:12:45.080Z,991
2022-10-29T04:14:46.338Z,991.1
2022-10-29T04:16:48.048Z,991.1
2022-10-29T04:18:49.199Z,991.2
2022-10-29T04:28:55.334Z,991.2
2022-10-29T04:30:56.627Z,991.3
2022-10-29T04:32:58.088Z,991.2
2022-10-29T04:34:58.927Z,991.2
2022-10-29T04:39:01.646Z,991.3
2022-10-29T04:41:03.093Z,991.4
2022-10-29T04:43:04.970Z,991.4
2022-10-29T04:45:06.580Z,991.3
2022-10-29T04:49:09.464Z,991.2
2022-10-29T04:51:10.688Z,991.3
2022-10-29T04:53:11.750Z,991.3
2022-10-29T04:55:12.954Z,991.3
2022-10-29T04:57:14.575Z,991.4
2022-10-29T04:59:15.942Z,991.3
2022-10-29T05:01:17.235Z,991.4
2022-10-29T05:03:18.643Z,991.4
2022-10-29T05:05:20.005Z,991.4
2022-10-29T05:07:21.539Z,991.4
2022-10-29T05:09:23.300Z,991.4
2022-10-29T05:11:24.499Z,991.3
2022-10-29T05:13:25.643Z,991.3
2022-10-29T05:15:27.109Z,991.4
2022-10-29T05:17:28.278Z,991.3
2022-10-29T05:19:29.989Z,991.3
2022-10-29T05:21:31.878Z,991.2
2022-10-29T05:23:33.033Z,991.3
2022-10-29T05:25:34.457Z,991.2
2022-10-29T05:27:35.677Z,991.2
2022-10-29T05:29:36.978Z,991.1
2022-10-29T05:31:38.190Z,991.1
2022-10-29T05:33:39.789Z,991
2022-10-29T05:35:41.152Z,991
2022-10-29T05:37:43.009Z,991.1
2022-10-29T05:39:44.617Z,991.1
2022-10-29T05:41:46.108Z,991.2
2022-10-29T05:43:47.086Z,991.1
2022-10-29T05:45:48.389Z,991.1
2022-10-29T05:47:49.486Z,991.2
2022-10-29T05:49:50.405Z,991.1
2022-10-29T05:53:52.845Z,991.2
2022-10-29T05:55:54.007Z,991.2
2022-10-29T05:57:55.187Z,991.1
2022-10-29T05:59:56.680Z,991.2
2022-10-29T06:01:58.240Z,991.1
2022-10-29T06:03:59.216Z,991.1
2022-10-29T06:06:00.595Z,991.1
2022-10-29T06:08:01.912Z,991.1
2022-10-29T06:10:03.017Z,991
2022-10-29T06:12:04.711Z,991
2022-10-29T06:14:06.059Z,991
2022-10-29T06:16:07.942Z,991
2022-10-29T06:18:08.913Z,991
2022-10-29T06:20:10.664Z,990.9
2022-10-29T06:22:12.303Z,991
2022-10-29T06:24:13.700Z,990.9
2022-10-29T06:26:15.081Z,991
2022-10-29T06:28:16.320Z,991
2022-10-29T06:30:17.741Z,991
2022-10-29T06:32:19.509Z,991
2022-10-29T06:36:23.006Z,991
2022-10-29T06:38:24.787Z,990.9
2022-10-29T06:40:25.831Z,991
2022-10-29T06:42:26.884Z,991
2022-10-29T06:44:28.592Z,991
2022-10-29T06:46:29.944Z,991.2
2022-10-29T06:48:31.426Z,991.2
2022-10-29T06:50:32.826Z,991
2022-10-29T06:52:33.950Z,991.1
2022-10-29T06:54:35.765Z,991.2
2022-10-29T06:56:36.838Z,991.1
2022-10-29T06:58:37.797Z,991.2
2022-10-29T07:02:40.764Z,991.2
2022-10-29T07:04:41.705Z,991.1
2022-10-29T07:06:43.375Z,991.1
2022-10-29T07:08:44.832Z,991.1
2022-10-29T07:12:48.217Z,991.1
2022-10-29T07:14:49.550Z,991.1
2022-10-29T07:16:51.179Z,991.1
2022-10-29T07:18:52.577Z,991.1
2022-10-29T07:20:53.771Z,991.1
2022-10-29T07:22:55.285Z,991.1
2022-10-29T07:24:57.226Z,991.2
2022-10-29T07:26:58.292Z,991.1
2022-10-29T07:28:59.954Z,991.1
2022-10-29T07:31:01.658Z,991.2
2022-10-29T07:33:03.099Z,991.2
2022-10-29T07:35:04.456Z,991.2
2022-10-29T07:37:05.667Z,991.1
2022-10-29T07:39:07.349Z,991.2
2022-10-29T07:41:08.880Z,991.3
2022-10-29T07:43:10.198Z,991.2
2022-10-29T07:45:55.267Z,991.2
2022-10-29T07:47:59.941Z,991.2
2022-10-29T07:49:58.355Z,991.2
2022-10-29T07:52:00.180Z,991.3
2022-10-29T07:56:03.284Z,991.3
2022-10-29T07:58:05.017Z,991.3
2022-10-29T08:00:06.190Z,991.3
2022-10-29T08:02:07.336Z,991.3
2022-10-29T08:04:08.351Z,991.3
2022-10-29T08:06:10.155Z,991.3
2022-10-29T08:08:12.076Z,991.3
2022-10-29T08:10:13.808Z,991.3
2022-10-29T08:12:15.644Z,991.3
2022-10-29T08:14:20.210Z,991.3
2022-10-29T08:16:18.915Z,991.3
2022-10-29T08:18:19.888Z,991.3
2022-10-29T08:20:21.624Z,991.2
2022-10-29T08:22:23.302Z,991.3
2022-10-29T08:24:24.556Z,991.4
2022-10-29T08:26:26.168Z,991.3
2022-10-29T08:28:28.436Z,991.2
2022-10-29T08:30:28.183Z,991.3
2022-10-29T08:32:29.472Z,991.3
2022-10-29T08:34:30.825Z,991.3
2022-10-29T08:36:32.067Z,991.4
2022-10-29T08:38:33.770Z,991.2
2022-10-29T08:40:34.677Z,991.3
2022-10-29T08:42:36.323Z,991.3
2022-10-29T08:44:37.589Z,991.4
2022-10-29T08:46:38.572Z,991.3
2022-10-29T08:48:39.853Z,991.3
2022-10-29T08:50:40.795Z,991.3
2022-10-29T08:52:48.262Z,991.3
2022-10-29T08:54:43.887Z,991.4
2022-10-29T08:56:45.216Z,991.3
2022-10-29T08:58:46.891Z,991.4
2022-10-29T09:00:47.932Z,991.3
2022-10-29T09:02:48.727Z,991.3
2022-10-29T09:04:50.179Z,991.3
2022-10-29T09:06:51.221Z,991.4
2022-10-29T09:08:52.235Z,991.3
2022-10-29T09:10:53.154Z,991.3
2022-10-29T09:12:54.627Z,991.2
2022-10-29T09:14:55.426Z,991.3
2022-10-29T09:16:56.834Z,991.2
2022-10-29T09:21:00.278Z,991.2
2022-10-29T09:23:01.279Z,991.2
2022-10-29T09:25:02.353Z,991.2
2022-10-29T09:27:06.690Z,991.2
2022-10-29T09:31:06.287Z,991.3
2022-10-29T09:33:07.555Z,991.3
2022-10-29T09:37:09.834Z,991.3
2022-10-29T09:39:11.105Z,991.3
2022-10-29T09:41:12.130Z,991.3
2022-10-29T09:43:13.827Z,991.3
2022-10-29T09:45:14.650Z,991.3
2022-10-29T09:47:16.385Z,991.3
2022-10-29T09:49:17.655Z,991.2
2022-10-29T09:51:19.224Z,991.3
2022-10-29T09:53:20.869Z,991.2
2022-10-29T09:55:22.568Z,991.2
2022-10-29T09:57:23.579Z,991.2
2022-10-29T09:59:24.677Z,991.2
2022-10-29T10:01:26.240Z,991.2
2022-10-29T10:03:27.718Z,991.1
2022-10-29T10:05:28.558Z,991.1
2022-10-29T10:07:30.078Z,991.1
2022-10-29T10:09:31.573Z,991.1
2022-10-29T10:11:33.000Z,991.1
2022-10-29T10:13:34.706Z,991.2
2022-10-29T10:15:36.251Z,991.2
2022-10-29T10:17:37.059Z,991.1
2022-10-29T10:19:38.293Z,991.1
2022-10-29T10:21:39.758Z,991.1
2022-10-29T10:23:40.771Z,991.1
2022-10-29T10:25:42.438Z,991.1
2022-10-29T10:27:43.727Z,991
2022-10-29T10:29:44.880Z,991
2022-10-29T10:31:45.754Z,990.9
2022-10-29T10:33:47.058Z,990.9
2022-10-29T10:35:48.282Z,991
2022-10-29T10:37:49.155Z,991
2022-10-29T10:39:49.947Z,990.9
2022-10-29T10:41:50.976Z,990.9
2022-10-29T10:43:51.915Z,990.9
2022-10-29T10:45:53.663Z,990.8
2022-10-29T10:47:55.363Z,990.8
2022-10-29T10:49:56.291Z,990.8
2022-10-29T10:51:57.830Z,990.7
2022-10-29T10:53:58.768Z,990.8
2022-10-29T10:58:00.816Z,990.8
2022-10-29T11:00:02.462Z,990.6
2022-10-29T11:02:04.218Z,990.7
2022-10-29T11:04:05.489Z,990.6
2022-10-29T11:06:06.824Z,990.6
2022-10-29T11:08:08.239Z,990.5
2022-10-29T11:12:10.452Z,990.4
2022-10-29T11:14:11.382Z,990.5
2022-10-29T11:18:14.451Z,990.4
2022-10-29T11:20:15.316Z,990.4
2022-10-29T11:22:24.329Z,990.3
2022-10-29T11:24:17.531Z,990.2
2022-10-29T11:26:19.240Z,990.2
2022-10-29T11:28:20.213Z,990.1
2022-10-29T11:30:21.885Z,990.2
2022-10-29T11:32:23.643Z,990.1
2022-10-29T11:34:25.195Z,990.1
2022-10-29T11:36:26.538Z,990
2022-10-29T11:38:27.630Z,990.1
2022-10-29T11:40:28.766Z,990.1
2022-10-29T11:42:30.606Z,990
2022-10-29T11:44:32.086Z,990.1
2022-10-29T11:46:33.432Z,990.1
2022-10-29T11:48:35.133Z,990.1
2022-10-29T11:50:36.231Z,990.1
2022-10-29T11:52:37.918Z,990.1
2022-10-29T11:54:39.274Z,990
2022-10-29T11:56:40.650Z,990
2022-10-29T11:58:42.384Z,989.9
2022-10-29T12:00:43.999Z,989.9
2022-10-29T12:02:45.374Z,989.9
2022-10-29T12:04:47.014Z,989.8
2022-10-29T12:06:48.427Z,989.7
2022-10-29T12:08:49.436Z,989.8
2022-10-29T12:10:50.264Z,989.8
2022-10-29T12:12:51.729Z,989.8
2022-10-29T12:16:54.845Z,989.7
2022-10-29T12:18:56.472Z,989.8
2022-10-29T12:20:57.994Z,989.7
2022-10-29T12:23:00.876Z,989.7
2022-10-29T12:25:00.308Z,989.6
2022-10-29T12:27:01.775Z,989.7
2022-10-29T12:29:03.232Z,989.6
2022-10-29T12:31:04.530Z,989.6
2022-10-29T12:33:05.905Z,989.5
2022-10-29T12:35:07.209Z,989.6
2022-10-29T12:37:08.007Z,989.5
2022-10-29T12:39:09.627Z,989.5
2022-10-29T12:43:12.585Z,989.5
2022-10-29T12:45:13.616Z,989.4
2022-10-29T12:47:14.878Z,989.4
2022-10-29T12:49:15.774Z,989.4
2022-10-29T12:53:18.905Z,989.4
2022-10-29T12:55:19.908Z,989.4
2022-10-29T12:57:21.519Z,989.3
2022-10-29T12:59:22.669Z,989.3
2022-10-29T13:01:25.367Z,989.3
2022-10-29T13:03:25.339Z,989.3
2022-10-29T13:05:26.432Z,989.3
2022-10-29T13:07:27.375Z,989.3
2022-10-29T13:09:28.663Z,989.2
2022-10-29T13:11:29.471Z,989.3
2022-10-29T13:13:30.295Z,989.3
2022-10-29T13:15:31.691Z,989.3
2022-10-29T13:17:33.033Z,989.4
2022-10-29T13:19:33.970Z,989.3
2022-10-29T13:21:35.683Z,989.2
2022-10-29T13:23:36.643Z,989.1
2022-10-29T13:25:37.861Z,989.1
2022-10-29T13:27:39.235Z,989.2
2022-10-29T13:29:40.530Z,989.2
2022-10-29T13:31:41.853Z,989.1
2022-10-29T13:33:43.119Z,989.2
2022-10-29T13:35:44.082Z,989.2
2022-10-29T13:37:45.799Z,989.1
2022-10-29T13:39:47.218Z,989.1
2022-10-29T13:41:48.723Z,989.1
2022-10-29T13:43:49.528Z,989.1
2022-10-29T13:45:50.731Z,989.1
2022-10-29T13:47:51.994Z,989.1
2022-10-29T13:49:52.897Z,989
2022-10-29T13:51:53.791Z,989
2022-10-29T13:53:54.877Z,989
2022-10-29T13:57:58.014Z,989
2022-10-29T13:59:58.745Z,989
2022-10-29T14:01:59.669Z,988.9
2022-10-29T14:04:01.283Z,988.9
2022-10-29T14:06:02.514Z,988.9
2022-10-29T14:08:03.304Z,988.8
2022-10-29T14:10:04.506Z,988.9
2022-10-29T14:12:05.583Z,988.9
2022-10-29T14:14:07.024Z,989
2022-10-29T14:16:08.740Z,989
2022-10-29T14:18:09.868Z,988.9
2022-10-29T14:20:10.687Z,988.9
2022-10-29T14:24:12.425Z,988.9
2022-10-29T14:26:13.868Z,988.9
2022-10-29T14:28:14.876Z,988.9
2022-10-29T14:28:58.564Z,989
2022-10-29T14:30:59.696Z,989
2022-10-29T14:35:02.602Z,988.9
2022-10-29T14:37:03.861Z,989
2022-10-29T14:39:05.013Z,989
2022-10-29T14:41:06.136Z,989
2022-10-29T14:43:07.847Z,988.9
2022-10-29T14:45:09.138Z,989
2022-10-29T14:47:10.731Z,988.9
2022-10-29T14:49:11.982Z,988.9
2022-10-29T14:51:13.491Z,988.9
2022-10-29T14:53:14.934Z,989
2022-10-29T14:55:16.185Z,989
2022-10-29T14:57:17.073Z,989
2022-10-29T14:59:18.980Z,988.9
2022-10-29T15:01:19.954Z,988.9
2022-10-29T15:03:21.600Z,988.9
2022-10-29T15:07:23.857Z,988.9
2022-10-29T15:09:25.473Z,988.9
2022-10-29T15:11:27.016Z,988.9
2022-10-29T15:13:28.225Z,988.8
2022-10-29T15:15:29.685Z,988.8
2022-10-29T15:17:31.201Z,988.8
2022-10-29T15:19:32.381Z,988.7
2022-10-29T15:21:33.344Z,988.7
2022-10-29T15:23:34.977Z,988.7
2022-10-29T15:25:36.283Z,988.8
2022-10-29T15:27:37.571Z,988.7
2022-10-29T15:29:42.855Z,988.8
2022-10-29T15:31:40.111Z,988.7
2022-10-29T15:33:41.210Z,988.8
2022-10-29T15:35:42.941Z,988.8
2022-10-29T15:37:44.377Z,988.8
2022-10-29T15:39:45.498Z,988.8
2022-10-29T15:41:47.285Z,988.8
2022-10-29T15:43:48.196Z,988.8
2022-10-29T15:45:49.717Z,988.8
2022-10-29T15:47:51.499Z,988.8
2022-10-29T15:49:53.091Z,988.8
2022-10-29T15:51:54.139Z,988.8
2022-10-29T15:53:55.316Z,988.8
2022-10-29T15:55:56.821Z,988.8
2022-10-29T15:57:58.126Z,988.8
2022-10-29T16:02:00.072Z,988.8
2022-10-29T16:04:01.102Z,988.8
2022-10-29T16:06:02.056Z,988.8
2022-10-29T16:08:03.849Z,988.8
2022-10-29T16:10:05.584Z,988.8
2022-10-29T16:12:06.762Z,988.9
2022-10-29T16:14:08.521Z,988.8
2022-10-29T16:16:10.143Z,988.8
2022-10-29T16:18:11.416Z,988.9
2022-10-29T16:20:12.378Z,988.8
2022-10-29T16:22:13.247Z,988.9
2022-10-29T16:24:14.232Z,988.8
2022-10-29T16:26:15.252Z,988.9
2022-10-29T16:28:16.791Z,988.9
2022-10-29T16:30:17.790Z,988.8
2022-10-29T16:32:19.074Z,988.7
2022-10-29T16:34:22.169Z,988.7
2022-10-29T16:36:21.582Z,988.8
2022-10-29T16:38:23.419Z,988.8
2022-10-29T16:40:24.340Z,988.8
2022-10-29T16:42:25.930Z,988.8
2022-10-29T16:44:27.662Z,988.9
2022-10-29T16:48:30.615Z,988.9
2022-10-29T16:50:32.319Z,988.9
2022-10-29T16:52:33.510Z,988.9
2022-10-29T16:54:34.669Z,988.9
2022-10-29T16:56:35.985Z,988.9
2022-10-29T16:58:37.073Z,988.9
2022-10-29T17:00:38.348Z,988.8
2022-10-29T17:02:39.362Z,988.9
2022-10-29T17:04:40.567Z,989
2022-10-29T17:06:41.559Z,988.9
2022-10-29T17:08:43.189Z,989
2022-10-29T17:10:44.974Z,988.9
2022-10-29T17:12:46.141Z,988.9
2022-10-29T17:14:47.730Z,989
2022-10-29T17:16:49.295Z,989
2022-10-29T17:18:50.189Z,988.9
2022-10-29T17:20:51.857Z,989
2022-10-29T17:22:53.691Z,989
2022-10-29T17:24:55.401Z,989
2022-10-29T17:26:57.155Z,988.9
2022-10-29T17:30:59.341Z,989.1
2022-10-29T17:33:08.351Z,989.1
2022-10-29T17:35:02.118Z,989
2022-10-29T17:37:03.143Z,989.1
2022-10-29T17:39:04.206Z,989
2022-10-29T17:41:05.453Z,989
2022-10-29T17:43:06.269Z,989.1
2022-10-29T17:47:09.022Z,989.1
2022-10-29T17:49:09.995Z,989.2
2022-10-29T17:51:11.175Z,989.1
2022-10-29T17:53:12.769Z,989.1
2022-10-29T17:55:14.174Z,989.2
2022-10-29T17:57:15.100Z,989.1
2022-10-29T17:59:16.110Z,989.1
2022-10-29T18:01:17.683Z,989.1
2022-10-29T18:03:18.554Z,989.1
2022-10-29T18:05:20.173Z,989.2
2022-10-29T18:07:21.975Z,989.2
2022-10-29T18:09:23.517Z,989.2
2022-10-29T18:13:26.473Z,989.2
2022-10-29T18:15:28.019Z,989.2
2022-10-29T18:17:29.460Z,989.2
2022-10-29T18:19:30.663Z,989.2
2022-10-29T18:21:31.692Z,989.3
2022-10-29T18:23:33.300Z,989.2
2022-10-29T18:25:35.063Z,989.2
2022-10-29T18:27:36.854Z,989.3
2022-10-29T18:29:37.947Z,989.2
2022-10-29T18:31:39.356Z,989.1
2022-10-29T18:33:40.876Z,989.1
2022-10-29T18:35:42.428Z,989.3
2022-10-29T18:37:43.397Z,989.1
2022-10-29T18:39:44.345Z,989.2
2022-10-29T18:41:45.298Z,989.2
2022-10-29T18:43:46.803Z,989.1
2022-10-29T18:45:47.887Z,989.2
2022-10-29T18:47:48.996Z,989.1
2022-10-29T18:49:50.695Z,989.2
2022-10-29T18:51:51.741Z,989.2
2022-10-29T18:53:52.840Z,989.2
2022-10-29T18:55:53.743Z,989.1
2022-10-29T18:57:55.390Z,989.2
2022-10-29T18:59:56.645Z,989.2
2022-10-29T19:01:58.253Z,989.1
2022-10-29T19:03:59.341Z,989.1
2022-10-29T19:06:01.040Z,989.1
2022-10-29T19:08:01.915Z,989
2022-10-29T19:10:03.698Z,989
2022-10-29T19:12:05.502Z,989
2022-10-29T19:14:07.142Z,989
2022-10-29T19:16:08.504Z,989.1
2022-10-29T19:18:10.012Z,989.1
2022-10-29T19:20:10.948Z,989.1
2022-10-29T19:22:12.675Z,989
2022-10-29T19:24:14.329Z,989
2022-10-29T19:26:16.078Z,989
2022-10-29T19:28:17.271Z,989.1
2022-10-29T19:30:18.183Z,989.1
2022-10-29T19:32:19.336Z,989.1
2022-10-29T19:34:21.011Z,989.1
2022-10-29T19:36:22.263Z,989.1
2022-10-29T19:38:23.959Z,989.1
2022-10-29T19:40:25.662Z,989
2022-10-29T19:42:27.191Z,989.1
2022-10-29T19:44:28.655Z,989
2022-10-29T19:46:30.109Z,989
2022-10-29T19:48:31.149Z,989.1
2022-10-29T19:50:32.169Z,989
2022-10-29T19:52:33.160Z,989
2022-10-29T19:54:34.757Z,989.1
2022-10-29T19:56:35.710Z,989
2022-10-29T19:58:37.585Z,989
2022-10-29T20:00:39.360Z,989.1
2022-10-29T20:02:40.625Z,989.1
2022-10-29T20:04:42.200Z,989.1
2022-10-29T20:06:43.919Z,989
2022-10-29T20:08:45.103Z,989
2022-10-29T20:10:46.941Z,989.1
2022-10-29T20:12:48.136Z,989
2022-10-29T20:14:49.955Z,989
2022-10-29T20:16:51.286Z,989
2022-10-29T20:18:52.391Z,989
2022-10-29T20:20:53.801Z,988.9
2022-10-29T20:22:55.319Z,989
2022-10-29T20:24:56.089Z,988.9
2022-10-29T20:26:57.663Z,988.9
2022-10-29T20:28:58.979Z,989
2022-10-29T20:31:00.625Z,989
2022-10-29T20:33:01.535Z,989
2022-10-29T20:35:02.640Z,989
2022-10-29T20:37:03.765Z,989
2022-10-29T20:39:05.247Z,989
2022-10-29T20:41:06.180Z,988.9
2022-10-29T20:43:07.618Z,989.1
2022-10-29T20:45:09.098Z,989
2022-10-29T20:47:10.795Z,989.1
2022-10-29T20:49:12.176Z,989.1
2022-10-29T20:53:14.920Z,989.1
2022-10-29T20:55:15.838Z,989
2022-10-29T20:57:17.550Z,989.1
2022-10-29T20:59:18.888Z,989
2022-10-29T21:01:20.341Z,989
2022-10-29T21:03:21.359Z,989
2022-10-29T21:05:22.361Z,989.1
2022-10-29T21:07:23.697Z,989
2022-10-29T21:09:25.489Z,989
2022-10-29T21:11:26.776Z,989
2022-10-29T21:13:28.300Z,989.1
2022-10-29T21:15:29.743Z,989
2022-10-29T21:16:13.564Z,989
2022-10-29T21:18:14.834Z,989.1
2022-10-29T21:20:16.558Z,989
2022-10-29T21:22:18.454Z,989
2022-10-29T21:24:19.555Z,989
2022-10-29T21:26:20.746Z,989
2022-10-29T21:28:22.135Z,989
2022-10-29T21:30:23.068Z,989.1
2022-10-29T21:32:24.291Z,989
2022-10-29T21:34:25.909Z,988.9
2022-10-29T21:36:27.851Z,988.9
2022-10-29T21:38:28.730Z,988.8
2022-10-29T21:42:31.360Z,988.9
2022-10-29T21:44:32.451Z,988.9
2022-10-29T21:46:34.041Z,988.9
2022-10-29T21:48:35.465Z,989
2022-10-29T21:50:36.380Z,988.9
2022-10-29T21:52:37.305Z,988.8
2022-10-29T21:54:38.263Z,988.9
2022-10-29T21:56:39.477Z,988.9
2022-10-29T21:58:41.046Z,988.8
2022-10-29T22:00:42.855Z,988.9
2022-10-29T22:02:44.396Z,988.9
2022-10-29T22:04:45.702Z,988.9
2022-10-29T22:06:47.559Z,988.8
2022-10-29T22:08:48.612Z,989
2022-10-29T22:12:52.212Z,988.9
2022-10-29T22:14:53.539Z,988.9
2022-10-29T22:16:55.468Z,988.9
2022-10-29T22:18:56.879Z,989
2022-10-29T22:20:58.113Z,988.9
2022-10-29T22:23:00.179Z,988.9
2022-10-29T22:25:01.130Z,988.9
2022-10-29T22:27:02.821Z,988.9
2022-10-29T22:29:04.036Z,989
2022-10-29T22:31:05.489Z,988.8
2022-10-29T22:33:07.015Z,988.8
2022-10-29T22:35:08.686Z,988.8
2022-10-29T22:37:10.526Z,988.9
2022-10-29T22:39:12.094Z,988.9
2022-10-29T22:41:13.318Z,988.8
2022-10-29T22:43:14.663Z,988.8
2022-10-29T22:45:16.016Z,988.8
2022-10-29T22:47:17.069Z,988.8
2022-10-29T22:49:18.420Z,988.7
2022-10-29T22:51:20.155Z,988.9
2022-10-29T22:53:21.434Z,988.8
2022-10-29T22:55:22.869Z,988.8
2022-10-29T22:57:24.314Z,988.8
2022-10-29T22:59:25.582Z,988.8
2022-10-29T23:01:27.209Z,988.7
2022-10-29T23:03:28.606Z,988.8
2022-10-29T23:05:30.192Z,988.8
2022-10-29T23:11:34.108Z,988.9
2022-10-29T23:13:35.229Z,988.8
2022-10-29T23:15:36.524Z,988.8
2022-10-29T23:17:38.353Z,988.8
2022-10-29T23:19:39.260Z,988.7
2022-10-29T23:21:40.448Z,988.8
2022-10-29T23:23:42.291Z,988.8
2022-10-29T23:25:43.546Z,988.8
2022-10-29T23:27:44.500Z,988.8
2022-10-29T23:29:45.487Z,988.8
2022-10-29T23:31:47.231Z,988.9
2022-10-29T23:33:48.929Z,988.8
2022-10-29T23:35:50.176Z,988.9
2022-10-29T23:37:51.714Z,988.9
2022-10-29T23:39:52.609Z,988.9
2022-10-29T23:41:54.405Z,988.9
2022-10-29T23:43:55.824Z,989
2022-10-29T23:45:57.158Z,988.9
2022-10-29T23:47:59.193Z,988.9
2022-10-29T23:50:00.554Z,988.8
2022-10-29T23:52:02.170Z,988.8
2022-10-29T23:54:03.760Z,988.8
2022-10-29T23:56:05.617Z,988.7
2022-10-29T23:58:06.840Z,988.8
